Time;durP1;ratioP1;P1;durP2;ratioP2;P2;SDS_P1;SDS_P2;PMS_P1;PMS_P2;Temp;Humidity;BMP_temperature;BMP_pressure;BME280_temperature;BME280_humidity;BME280_pressure;Samples;Min_cycle;Max_cycle;Signal;HPM_P1;HPM_P2
2021/10/15 00:00:02;;;;;;;1.77;1.48;;;6.90;99.90;;;;;;4978970;28;20086;-83
2021/10/15 00:02:27;;;;;;;1.67;1.40;;;6.80;99.90;;;;;;4986796;28;20558;-84
2021/10/15 00:04:53;;;;;;;2.28;1.52;;;6.80;99.90;;;;;;4991530;28;20046;-84
2021/10/15 00:07:39;;;;;;;4.53;1.90;;;6.70;99.90;;;;;;4989577;28;20069;-84
2021/10/15 00:10:06;;;;;;;2.92;1.80;;;6.70;99.90;;;;;;4980860;28;20043;-84
2021/10/15 00:12:32;;;;;;;1.95;1.65;;;6.60;99.90;;;;;;4991771;28;20026;-84
2021/10/15 00:15:07;;;;;;;1.77;1.20;;;6.60;99.90;;;;;;4995676;28;20026;-83
2021/10/15 00:17:47;;;;;;;1.63;1.50;;;6.60;99.90;;;;;;4996898;28;20475;-83
2021/10/15 00:20:13;;;;;;;1.95;1.48;;;6.60;99.90;;;;;;4993251;28;20030;-84
2021/10/15 00:22:39;;;;;;;2.35;1.67;;;6.60;99.90;;;;;;5011592;28;20044;-84
2021/10/15 00:25:06;;;;;;;3.92;1.45;;;6.50;99.90;;;;;;4983197;28;20047;-84
2021/10/15 00:27:32;;;;;;;3.17;1.73;;;6.50;99.90;;;;;;4983661;28;20038;-84
2021/10/15 00:29:58;;;;;;;1.50;1.20;;;6.50;99.90;;;;;;4987705;28;20027;-84
2021/10/15 00:32:23;;;;;;;1.60;1.50;;;6.40;99.90;;;;;;4979383;28;20044;-82
2021/10/15 00:34:49;;;;;;;1.75;1.30;;;6.40;99.90;;;;;;4980107;28;20022;-83
2021/10/15 00:37:19;;;;;;;1.60;1.23;;;6.30;99.90;;;;;;4960811;28;20472;-83
2021/10/15 00:39:47;;;;;;;2.17;1.55;;;6.30;99.90;;;;;;4979583;28;20503;-83
2021/10/15 00:42:13;;;;;;;2.35;1.38;;;6.30;99.90;;;;;;4966460;28;20034;-83
2021/10/15 00:44:39;;;;;;;2.97;1.60;;;6.30;99.90;;;;;;4983128;28;20019;-83
2021/10/15 00:47:05;;;;;;;4.72;1.38;;;6.30;99.90;;;;;;4961299;28;20011;-83
2021/10/15 00:49:31;;;;;;;1.80;1.30;;;6.20;99.90;;;;;;4978133;28;20038;-82
2021/10/15 00:51:57;;;;;;;1.95;1.40;;;6.20;99.90;;;;;;4981207;28;20042;-83
2021/10/15 00:54:23;;;;;;;2.70;1.73;;;6.20;99.90;;;;;;4979517;28;20042;-83
2021/10/15 00:56:49;;;;;;;1.33;1.20;;;6.20;99.90;;;;;;4996718;28;20066;-84
2021/10/15 00:59:15;;;;;;;2.13;1.30;;;6.20;99.90;;;;;;4999395;28;20022;-84
2021/10/15 01:01:42;;;;;;;1.88;1.30;;;6.20;99.90;;;;;;4997678;28;20050;-84
2021/10/15 01:04:08;;;;;;;1.02;0.98;;;6.20;99.90;;;;;;4998057;28;20514;-83
2021/10/15 01:06:35;;;;;;;1.75;1.45;;;6.10;99.90;;;;;;4994611;28;20022;-83
2021/10/15 01:09:02;;;;;;;1.95;1.20;;;6.10;99.90;;;;;;4997803;28;20034;-83
2021/10/15 01:11:28;;;;;;;1.63;1.13;;;6.10;99.90;;;;;;4992350;28;20018;-83
2021/10/15 01:13:55;;;;;;;1.65;1.38;;;6.10;99.90;;;;;;4989203;28;20027;-83
2021/10/15 01:16:30;;;;;;;2.50;1.35;;;6.10;99.90;;;;;;4979527;28;20052;-83
2021/10/15 01:18:58;;;;;;;0.95;0.85;;;6.10;99.90;;;;;;4999408;28;20034;-83
2021/10/15 01:21:24;;;;;;;1.58;1.23;;;6.00;99.90;;;;;;4996650;28;20031;-85
2021/10/15 01:23:50;;;;;;;1.15;1.00;;;6.00;99.90;;;;;;4989286;28;20089;-84
2021/10/15 01:26:16;;;;;;;1.13;1.02;;;6.00;99.90;;;;;;4962253;28;20039;-85
2021/10/15 01:28:42;;;;;;;1.35;0.98;;;6.00;99.90;;;;;;4992585;28;20053;-84
2021/10/15 01:31:08;;;;;;;2.05;1.15;;;6.00;99.90;;;;;;4997798;28;20487;-85
2021/10/15 01:33:34;;;;;;;1.17;1.08;;;6.00;99.90;;;;;;4988340;28;20027;-83
2021/10/15 01:36:00;;;;;;;1.67;1.20;;;5.90;99.90;;;;;;4979325;28;20103;-84
2021/10/15 01:38:27;;;;;;;2.28;1.42;;;5.80;99.90;;;;;;4987994;28;20490;-83
2021/10/15 01:40:53;;;;;;;2.05;1.35;;;5.80;99.90;;;;;;5000326;28;20078;-84
2021/10/15 01:43:25;;;;;;;1.75;1.42;;;5.80;99.90;;;;;;4990505;28;20030;-83
2021/10/15 01:45:51;;;;;;;1.47;1.20;;;5.70;99.90;;;;;;4989375;28;20046;-83
2021/10/15 01:48:17;;;;;;;1.67;1.25;;;5.70;99.90;;;;;;4983150;28;20312;-83
2021/10/15 01:50:43;;;;;;;1.60;1.20;;;5.80;99.90;;;;;;5024264;22;20042;-80
2021/10/15 01:53:09;;;;;;;1.63;1.05;;;5.80;99.90;;;;;;5014404;28;20096;-80
2021/10/15 01:55:35;;;;;;;1.23;1.13;;;5.80;99.90;;;;;;4998126;28;20031;-80
2021/10/15 01:58:01;;;;;;;1.23;1.13;;;5.80;99.90;;;;;;5014519;28;20200;-80
2021/10/15 02:00:27;;;;;;;1.70;1.38;;;5.80;99.90;;;;;;5014727;28;20050;-80
2021/10/15 02:02:53;;;;;;;1.23;1.00;;;5.80;99.90;;;;;;5017254;28;20022;-80
2021/10/15 02:05:20;;;;;;;1.70;1.35;;;5.70;99.90;;;;;;5001556;28;20029;-80
2021/10/15 02:07:46;;;;;;;1.17;1.02;;;5.80;99.90;;;;;;5016914;28;20030;-79
2021/10/15 02:10:14;;;;;;;2.03;1.13;;;5.70;99.90;;;;;;5014473;28;20038;-79
2021/10/15 02:12:41;;;;;;;1.52;1.25;;;5.70;99.90;;;;;;4990070;28;20026;-79
2021/10/15 02:15:09;;;;;;;1.35;1.02;;;5.70;99.90;;;;;;5000702;28;20041;-80
2021/10/15 02:17:35;;;;;;;2.40;1.20;;;5.60;99.90;;;;;;4997108;28;20011;-81
2021/10/15 02:20:03;;;;;;;1.60;1.08;;;5.60;99.90;;;;;;4999017;28;20792;-80
2021/10/15 02:22:29;;;;;;;2.10;0.98;;;5.60;99.90;;;;;;5007072;28;20025;-80
2021/10/15 02:24:54;;;;;;;1.70;1.15;;;5.60;99.90;;;;;;5006245;28;20042;-80
2021/10/15 02:27:20;;;;;;;1.70;1.13;;;5.60;99.90;;;;;;5008556;28;20006;-80
2021/10/15 02:29:46;;;;;;;1.23;1.10;;;5.60;99.90;;;;;;5012512;28;20018;-80
2021/10/15 02:32:12;;;;;;;1.98;1.15;;;5.50;99.90;;;;;;4987190;28;20094;-79
2021/10/15 02:34:38;;;;;;;1.20;1.00;;;5.50;99.90;;;;;;4982187;28;20015;-80
2021/10/15 02:37:03;;;;;;;0.80;0.80;;;5.50;99.90;;;;;;5009786;28;20048;-80
2021/10/15 02:39:29;;;;;;;1.35;1.10;;;5.60;99.90;;;;;;5015870;28;20045;-80
2021/10/15 02:41:55;;;;;;;2.10;1.00;;;5.60;99.90;;;;;;5012352;28;20093;-81
2021/10/15 02:44:20;;;;;;;1.15;1.00;;;5.50;99.90;;;;;;5006332;28;20053;-81
2021/10/15 02:46:46;;;;;;;2.00;1.13;;;5.40;99.90;;;;;;5015899;28;20081;-81
2021/10/15 02:49:12;;;;;;;1.30;1.10;;;5.40;99.90;;;;;;5010035;28;20101;-78
2021/10/15 02:51:38;;;;;;;0.77;0.70;;;5.40;99.90;;;;;;5008718;28;20061;-79
2021/10/15 02:54:04;;;;;;;0.80;0.80;;;5.50;99.90;;;;;;4993124;28;20030;-79
2021/10/15 02:56:30;;;;;;;1.00;0.77;;;5.40;99.90;;;;;;5013706;28;20030;-81
2021/10/15 02:58:56;;;;;;;1.00;0.88;;;5.40;99.90;;;;;;5017626;28;20057;-80
2021/10/15 03:01:22;;;;;;;1.58;1.08;;;5.40;99.90;;;;;;5009994;28;20014;-80
2021/10/15 03:03:48;;;;;;;1.25;0.90;;;5.40;99.90;;;;;;5013944;28;20014;-80
2021/10/15 03:06:15;;;;;;;3.65;1.27;;;5.40;99.90;;;;;;5014107;28;20086;-80
2021/10/15 03:08:41;;;;;;;3.03;1.13;;;5.40;99.90;;;;;;5010566;28;20022;-82
2021/10/15 03:11:07;;;;;;;1.38;1.00;;;5.30;99.90;;;;;;5001960;28;20192;-81
2021/10/15 03:13:32;;;;;;;0.95;0.80;;;5.40;99.90;;;;;;4998996;28;20038;-81
2021/10/15 03:15:58;;;;;;;1.00;0.90;;;5.30;99.90;;;;;;5004428;28;20053;-80
2021/10/15 03:18:24;;;;;;;1.55;0.90;;;5.30;99.90;;;;;;5003908;28;20039;-81
2021/10/15 03:20:50;;;;;;;1.05;0.90;;;5.30;99.90;;;;;;5003384;28;20441;-80
2021/10/15 03:23:16;;;;;;;0.80;0.68;;;5.20;99.90;;;;;;5004307;28;20053;-80
2021/10/15 03:25:42;;;;;;;0.80;0.80;;;5.20;99.90;;;;;;5001537;28;20139;-81
2021/10/15 03:28:08;;;;;;;1.20;0.90;;;5.10;99.90;;;;;;4987234;28;20026;-82
2021/10/15 03:30:34;;;;;;;1.38;0.95;;;5.10;99.90;;;;;;5009529;28;20041;-81
2021/10/15 03:33:00;;;;;;;1.25;1.05;;;5.20;99.90;;;;;;4991349;28;20027;-81
2021/10/15 03:35:26;;;;;;;1.10;0.85;;;5.10;99.90;;;;;;5006811;28;20419;-81
2021/10/15 03:37:52;;;;;;;1.70;1.00;;;5.20;99.90;;;;;;5007712;28;20290;-81
2021/10/15 03:40:17;;;;;;;1.05;0.95;;;5.20;99.90;;;;;;4992295;28;20412;-81
2021/10/15 03:42:43;;;;;;;0.80;0.80;;;5.30;99.90;;;;;;5004156;28;20339;-81
2021/10/15 03:45:09;;;;;;;1.02;0.85;;;5.30;99.90;;;;;;5005798;28;20037;-83
2021/10/15 03:47:36;;;;;;;0.82;0.75;;;5.30;99.90;;;;;;4988308;28;20034;-80
2021/10/15 03:50:03;;;;;;;1.90;0.80;;;5.30;99.90;;;;;;5006953;28;20098;-80
2021/10/15 03:52:29;;;;;;;0.88;0.75;;;5.20;99.90;;;;;;5010466;28;20038;-81
2021/10/15 03:54:55;;;;;;;0.98;0.88;;;5.20;99.90;;;;;;5009043;28;20037;-82
2021/10/15 03:57:21;;;;;;;2.10;0.88;;;5.20;99.90;;;;;;4999716;28;20093;-81
2021/10/15 03:59:46;;;;;;;0.85;0.70;;;5.20;99.90;;;;;;5006581;28;20030;-82
2021/10/15 04:02:12;;;;;;;1.20;0.80;;;5.20;99.90;;;;;;4992165;28;20026;-82
2021/10/15 04:04:41;;;;;;;1.15;1.00;;;5.10;99.90;;;;;;4988798;28;20023;-80
2021/10/15 04:07:06;;;;;;;1.55;0.93;;;5.20;99.90;;;;;;4989110;28;20035;-81
2021/10/15 04:09:32;;;;;;;1.35;1.10;;;5.20;99.90;;;;;;4996486;28;20035;-80
2021/10/15 04:11:58;;;;;;;1.58;1.08;;;5.20;99.90;;;;;;5006132;28;20035;-80
2021/10/15 04:14:24;;;;;;;1.55;1.10;;;5.20;99.90;;;;;;4992496;28;20030;-80
2021/10/15 04:16:50;;;;;;;1.52;1.08;;;5.20;99.90;;;;;;5014119;28;20022;-80
2021/10/15 04:19:15;;;;;;;2.15;0.85;;;5.20;99.90;;;;;;5015349;28;20033;-80
2021/10/15 04:21:42;;;;;;;1.35;0.80;;;5.20;99.90;;;;;;5012933;28;20613;-81
2021/10/15 04:24:08;;;;;;;0.70;0.70;;;5.30;99.90;;;;;;4989716;28;20033;-81
2021/10/15 04:26:33;;;;;;;3.80;1.08;;;5.30;99.90;;;;;;4987508;28;20030;-80
2021/10/15 04:28:59;;;;;;;2.30;0.77;;;5.30;99.90;;;;;;5005115;28;20022;-82
2021/10/15 04:31:25;;;;;;;0.95;0.80;;;5.30;99.90;;;;;;5004476;28;20018;-81
2021/10/15 04:33:51;;;;;;;1.00;0.90;;;5.30;99.90;;;;;;5004655;28;20052;-81
2021/10/15 04:36:17;;;;;;;1.00;0.90;;;5.30;99.90;;;;;;5005497;28;20018;-80
2021/10/15 04:38:42;;;;;;;1.40;0.88;;;5.30;99.90;;;;;;5004853;28;20034;-80
2021/10/15 04:41:08;;;;;;;1.95;1.23;;;5.30;99.90;;;;;;5005327;28;20033;-80
2021/10/15 04:43:34;;;;;;;1.45;1.05;;;5.30;99.90;;;;;;4998651;28;20110;-81
2021/10/15 04:46:00;;;;;;;1.67;0.80;;;5.20;99.90;;;;;;5007818;28;20034;-81
2021/10/15 04:48:25;;;;;;;1.25;1.02;;;5.20;99.90;;;;;;5009418;28;20038;-81
2021/10/15 04:50:52;;;;;;;0.77;0.77;;;5.30;99.90;;;;;;5008761;28;20053;-79
2021/10/15 04:53:18;;;;;;;1.35;0.93;;;5.30;99.90;;;;;;5004912;28;20033;-82
2021/10/15 04:55:44;;;;;;;2.13;1.42;;;5.30;99.90;;;;;;4988857;28;20026;-81
2021/10/15 04:58:09;;;;;;;1.50;1.00;;;5.30;99.90;;;;;;4975928;28;20034;-82
2021/10/15 05:00:36;;;;;;;1.23;0.80;;;5.20;99.90;;;;;;5006976;28;20526;-81
2021/10/15 05:03:02;;;;;;;1.33;1.00;;;5.20;99.90;;;;;;4988586;28;20030;-82
2021/10/15 05:05:29;;;;;;;0.98;0.98;;;5.20;99.90;;;;;;5003968;28;20407;-81
2021/10/15 05:07:56;;;;;;;1.42;0.80;;;5.10;99.90;;;;;;5002805;28;20105;-80
2021/10/15 05:10:23;;;;;;;0.63;0.60;;;5.20;99.90;;;;;;4993104;28;20042;-81
2021/10/15 05:12:52;;;;;;;1.45;1.00;;;5.10;99.90;;;;;;5000780;28;20034;-81
2021/10/15 05:15:19;;;;;;;0.80;0.80;;;5.10;99.90;;;;;;5003465;28;20022;-81
2021/10/15 05:17:45;;;;;;;0.70;0.70;;;5.10;99.90;;;;;;4986558;28;20037;-81
2021/10/15 05:20:15;;;;;;;1.15;0.63;;;5.10;99.90;;;;;;4990665;28;20187;-81
2021/10/15 05:22:41;;;;;;;2.55;0.90;;;5.10;99.90;;;;;;5004037;28;20638;-81
2021/10/15 05:25:08;;;;;;;1.77;0.98;;;5.00;99.90;;;;;;5003979;28;20065;-81
2021/10/15 05:27:34;;;;;;;1.73;1.00;;;5.00;99.90;;;;;;5001991;28;20022;-80
2021/10/15 05:30:00;;;;;;;1.00;0.90;;;5.00;99.90;;;;;;4987657;28;20096;-79
2021/10/15 05:32:27;;;;;;;1.02;0.93;;;5.00;99.90;;;;;;5010986;28;20022;-79
2021/10/15 05:34:53;;;;;;;2.25;0.65;;;5.00;99.90;;;;;;4986470;28;20037;-80
2021/10/15 05:37:18;;;;;;;2.17;1.08;;;4.90;99.90;;;;;;5008197;28;20035;-80
2021/10/15 05:39:45;;;;;;;0.93;0.80;;;4.90;99.90;;;;;;4996752;28;20026;-79
2021/10/15 05:42:11;;;;;;;1.50;0.98;;;5.00;99.90;;;;;;5001038;28;20027;-81
2021/10/15 05:44:37;;;;;;;1.65;1.20;;;5.00;99.90;;;;;;4988866;28;20037;-80
2021/10/15 05:47:06;;;;;;;1.67;1.13;;;5.00;99.90;;;;;;4991936;28;20033;-81
2021/10/15 05:49:35;;;;;;;1.05;0.90;;;5.10;99.90;;;;;;4988903;28;20034;-81
2021/10/15 05:52:44;;;;;;;1.17;1.13;;;5.10;99.90;;;;;;4977810;28;20406;-81
2021/10/15 05:55:18;;;;;;;1.38;1.02;;;5.10;99.90;;;;;;5001146;28;20068;-82
2021/10/15 06:00:30;;;;;;;1.00;0.90;;;5.20;99.90;;;;;;5004238;28;20615;-82
2021/10/15 06:02:56;;;;;;;1.95;0.73;;;5.30;99.90;;;;;;5001223;28;20037;-83
2021/10/15 06:16:25;;;;;;;2.25;1.05;;;5.40;99.90;;;;;;5009398;28;20045;-82
2021/10/15 06:18:58;;;;;;;1.58;0.95;;;5.40;99.90;;;;;;5005741;28;20071;-83
2021/10/15 06:21:25;;;;;;;1.65;1.05;;;5.30;99.90;;;;;;4986892;28;20038;-83
2021/10/15 06:23:53;;;;;;;1.20;1.00;;;5.30;99.90;;;;;;5003904;28;20475;-82
2021/10/15 06:26:19;;;;;;;1.52;1.27;;;5.20;99.90;;;;;;5005606;28;20022;-83
2021/10/15 06:28:44;;;;;;;1.20;0.93;;;5.30;99.90;;;;;;4986389;28;20102;-82
2021/10/15 06:31:10;;;;;;;1.98;1.27;;;5.30;99.90;;;;;;5005350;28;20026;-82
2021/10/15 06:33:36;;;;;;;3.25;1.13;;;5.30;99.90;;;;;;5004246;28;20034;-82
2021/10/15 06:36:02;;;;;;;2.72;1.10;;;5.40;99.90;;;;;;5003347;28;20037;-82
2021/10/15 06:38:28;;;;;;;2.67;1.40;;;5.40;99.90;;;;;;5008866;28;20033;-83
2021/10/15 06:40:54;;;;;;;2.85;1.20;;;5.50;99.90;;;;;;4999055;28;20054;-81
2021/10/15 06:43:19;;;;;;;1.55;1.00;;;5.60;99.90;;;;;;4995349;28;20031;-82
2021/10/15 06:45:45;;;;;;;1.63;0.90;;;5.70;99.90;;;;;;4999702;28;20019;-81
2021/10/15 06:48:11;;;;;;;1.13;0.80;;;5.70;99.90;;;;;;4978543;28;20524;-82
2021/10/15 06:50:36;;;;;;;2.17;0.98;;;5.80;99.90;;;;;;4992348;28;20035;-82
2021/10/15 06:53:08;;;;;;;1.48;1.10;;;5.90;99.90;;;;;;4972732;28;20030;-82
2021/10/15 06:55:34;;;;;;;1.58;1.10;;;6.00;99.90;;;;;;4988412;28;20030;-83
2021/10/15 06:58:08;;;;;;;1.38;0.95;;;6.10;99.90;;;;;;4989885;28;20026;-82
2021/10/15 07:01:02;;;;;;;1.10;0.93;;;6.20;99.90;;;;;;4987880;28;20059;-82
2021/10/15 07:03:31;;;;;;;6.50;1.05;;;6.30;99.90;;;;;;4951710;28;20045;-83
2021/10/15 07:05:57;;;;;;;1.33;0.95;;;6.40;99.90;;;;;;5007781;28;20030;-81
2021/10/15 07:08:28;;;;;;;1.80;0.80;;;6.60;99.90;;;;;;5019330;28;20098;-81
2021/10/15 07:10:54;;;;;;;1.50;1.00;;;6.70;99.90;;;;;;5011620;28;20040;-83
2021/10/15 07:13:19;;;;;;;2.78;1.20;;;6.80;99.90;;;;;;4994196;28;20464;-82
2021/10/15 07:15:46;;;;;;;3.15;1.60;;;6.90;99.90;;;;;;4973515;28;20030;-82
2021/10/15 07:18:17;;;;;;;2.55;1.23;;;7.10;99.90;;;;;;5003935;28;20153;-84
2021/10/15 07:20:43;;;;;;;2.33;1.20;;;7.20;99.90;;;;;;5004441;28;20065;-82
2021/10/15 07:23:11;;;;;;;3.08;1.20;;;7.40;99.90;;;;;;5009023;28;20024;-80
2021/10/15 07:25:37;;;;;;;2.10;1.08;;;7.50;99.90;;;;;;5003877;28;20058;-81
2021/10/15 07:28:03;;;;;;;2.30;1.40;;;7.60;99.30;;;;;;4988780;28;20045;-81
2021/10/15 07:30:29;;;;;;;4.68;1.13;;;7.80;98.90;;;;;;4971954;28;20023;-83
2021/10/15 07:33:25;;;;;;;2.78;1.58;;;8.00;98.50;;;;;;5006465;28;20130;-82
2021/10/15 07:35:51;;;;;;;4.07;1.50;;;8.20;97.90;;;;;;5006960;28;20053;-80
2021/10/15 07:38:17;;;;;;;3.05;1.50;;;8.30;97.40;;;;;;4988318;28;20462;-81
2021/10/15 07:40:42;;;;;;;3.95;1.35;;;8.50;97.10;;;;;;5005036;28;20438;-81
2021/10/15 07:43:10;;;;;;;2.22;1.45;;;8.70;96.00;;;;;;4990388;28;20090;-80
2021/10/15 07:46:19;;;;;;;0.80;0.80;;;8.90;95.40;;;;;;4986325;28;20022;-80
2021/10/15 07:48:53;;;;;;;1.98;1.08;;;9.10;94.90;;;;;;5005311;28;20064;-80
2021/10/15 07:51:26;;;;;;;1.73;1.55;;;9.40;93.60;;;;;;5027256;22;20430;-82
2021/10/15 07:53:55;;;;;;;1.17;1.08;;;9.60;92.50;;;;;;5012865;28;20057;-83
2021/10/15 07:56:20;;;;;;;3.20;1.63;;;9.70;92.10;;;;;;5005355;28;20022;-82
2021/10/15 07:58:46;;;;;;;1.80;1.30;;;9.80;91.50;;;;;;5021938;28;20041;-81
2021/10/15 08:01:12;;;;;;;1.42;1.23;;;10.00;91.10;;;;;;5022360;28;20025;-82
2021/10/15 08:03:37;;;;;;;1.83;1.30;;;10.20;90.90;;;;;;5019120;28;20514;-82
2021/10/15 08:06:03;;;;;;;2.08;1.40;;;10.40;90.50;;;;;;5020834;28;20034;-82
2021/10/15 08:08:32;;;;;;;3.97;1.75;;;10.50;89.90;;;;;;5011409;28;20467;-82
2021/10/15 08:10:57;;;;;;;2.08;1.20;;;10.60;88.60;;;;;;5006675;28;20104;-81
2021/10/15 08:13:26;;;;;;;2.03;1.23;;;10.80;87.70;;;;;;5029919;28;20059;-82
2021/10/15 08:15:51;;;;;;;1.75;1.23;;;10.90;86.90;;;;;;5021280;28;20021;-82
2021/10/15 08:18:17;;;;;;;2.42;1.60;;;11.10;86.10;;;;;;5033768;28;20093;-84
2021/10/15 08:20:44;;;;;;;3.00;1.70;;;11.30;82.80;;;;;;5000073;28;20052;-83
2021/10/15 08:23:09;;;;;;;2.45;1.42;;;11.50;82.80;;;;;;5014004;28;20034;-82
2021/10/15 08:25:37;;;;;;;1.35;1.20;;;11.70;82.40;;;;;;5021595;28;20026;-82
2021/10/15 08:28:02;;;;;;;2.33;1.45;;;11.90;81.40;;;;;;5020553;28;20071;-82
2021/10/15 08:30:28;;;;;;;2.08;1.58;;;12.10;79.60;;;;;;5021401;28;20116;-82
2021/10/15 08:32:56;;;;;;;4.55;1.15;;;12.20;79.30;;;;;;5002133;28;20498;-83
2021/10/15 08:35:23;;;;;;;1.17;1.05;;;12.40;77.60;;;;;;4970955;28;20050;-83
2021/10/15 08:37:57;;;;;;;4.00;1.85;;;12.50;76.70;;;;;;5019959;28;20037;-83
2021/10/15 08:40:23;;;;;;;1.70;1.33;;;12.60;75.50;;;;;;5021594;28;20022;-84
2021/10/15 08:42:52;;;;;;;1.10;1.00;;;12.80;74.70;;;;;;5036735;28;20066;-83
2021/10/15 08:45:24;;;;;;;3.78;1.50;;;13.00;72.00;;;;;;5023799;28;20070;-83
2021/10/15 08:47:50;;;;;;;2.53;1.45;;;13.20;70.80;;;;;;5023107;28;20129;-83
2021/10/15 08:50:15;;;;;;;1.52;1.13;;;13.30;69.70;;;;;;5040836;28;20057;-82
2021/10/15 08:52:41;;;;;;;1.45;1.13;;;13.40;69.20;;;;;;5039551;28;20040;-82
2021/10/15 08:55:07;;;;;;;3.45;2.05;;;13.60;69.30;;;;;;5022815;28;20383;-82
2021/10/15 08:57:33;;;;;;;7.40;1.48;;;13.70;67.60;;;;;;5022624;28;20022;-81
2021/10/15 09:00:00;;;;;;;5.40;1.20;;;13.20;68.20;;;;;;5003971;28;20038;-81
2021/10/15 09:02:27;;;;;;;4.47;1.17;;;13.20;70.20;;;;;;5002711;28;20030;-82
2021/10/15 09:04:57;;;;;;;2.10;1.10;;;13.50;69.80;;;;;;5004663;28;20118;-82
2021/10/15 09:07:25;;;;;;;2.03;1.60;;;13.80;69.10;;;;;;5001585;28;20034;-82
2021/10/15 09:10:08;;;;;;;2.85;1.45;;;14.10;67.30;;;;;;4983816;28;20030;-82
2021/10/15 09:12:45;;;;;;;1.83;1.25;;;14.50;66.80;;;;;;5008052;28;20500;-81
2021/10/15 09:15:16;;;;;;;3.75;1.23;;;14.70;66.10;;;;;;5016490;28;20017;-82
2021/10/15 09:17:52;;;;;;;0.95;0.95;;;14.80;64.40;;;;;;5020649;28;20056;-82
2021/10/15 09:35:31;;;;;;;1.15;0.95;;;15.40;60.70;;;;;;5040181;28;20122;-82
2021/10/15 09:42:34;;;;;;;2.33;1.73;;;15.70;59.70;;;;;;5016385;22;20042;-83
2021/10/15 09:45:28;;;;;;;;;;;;;;;;;;;;;
2021/10/15 09:54:41;;;;;;;3.95;2.03;;;15.90;58.40;;;;;;5023131;28;20091;-83
2021/10/15 09:57:10;;;;;;;5.38;2.35;;;15.50;58.80;;;;;;5002380;28;20061;-83
2021/10/15 09:59:53;;;;;;;5.18;2.30;;;14.70;60.50;;;;;;5020957;28;20026;-82
2021/10/15 10:02:30;;;;;;;3.97;2.00;;;14.40;62.60;;;;;;5003481;28;20568;-83
2021/10/15 10:04:59;;;;;;;2.25;1.92;;;14.50;62.90;;;;;;5002472;28;20529;-82
2021/10/15 10:07:34;;;;;;;4.25;1.77;;;14.70;62.70;;;;;;5001628;28;20030;-82
2021/10/15 10:10:00;;;;;;;2.50;1.80;;;15.10;62.10;;;;;;5001519;28;20030;-82
2021/10/15 10:12:36;;;;;;;2.50;1.73;;;15.40;61.00;;;;;;5027193;28;20474;-82
2021/10/15 10:19:08;;;;;;;2.03;1.70;;;16.20;58.00;;;;;;4917910;29;20025;-82
2021/10/15 10:21:41;;;;;;;3.58;1.90;;;16.40;57.20;;;;;;4945924;28;20078;-83
2021/10/15 10:25:06;;;;;;;3.15;1.75;;;16.50;56.10;;;;;;5005097;28;20026;-83
2021/10/15 10:27:37;;;;;;;2.72;1.77;;;16.50;55.20;;;;;;4999417;28;20137;-83
2021/10/15 10:30:14;;;;;;;2.15;1.90;;;16.40;55.90;;;;;;5005506;28;20081;-82
2021/10/15 10:43:18;;;;;;;2.70;1.67;;;16.40;56.10;;;;;;4894916;29;20786;-82
2021/10/15 10:46:26;;;;;;;;;;;;;;;;;;;;;
2021/10/15 10:49:33;;;;;;;2.45;1.73;;;15.40;59.30;;;;;;4998765;28;20110;-83
2021/10/15 10:58:15;;;;;;;4.40;1.75;;;16.00;59.00;;;;;;4911792;22;20072;-83
2021/10/15 11:09:49;;;;;;;;;;;;;;;;;;;;;
2021/10/15 11:22:51;;;;;;;2.67;1.87;;;16.50;58.60;;;;;;5036985;28;20038;-83
2021/10/15 11:29:57;;;;;;;3.83;2.00;;;16.50;58.00;;;;;;5000549;28;20089;-83
2021/10/15 11:44:02;;;;;;;3.00;1.90;;;16.50;57.80;;;;;;4910918;29;20103;-83
2021/10/15 11:46:31;;;;;;;2.15;1.88;;;16.70;57.50;;;;;;4931873;29;20117;-83
2021/10/15 11:48:57;;;;;;;2.10;1.48;;;16.80;57.30;;;;;;4964944;28;20126;-83
2021/10/15 11:51:32;;;;;;;2.20;1.58;;;16.70;57.50;;;;;;5008451;28;20073;-83
2021/10/15 11:54:00;;;;;;;3.05;1.52;;;16.70;57.70;;;;;;5024245;28;20048;-81
2021/10/15 11:56:29;;;;;;;4.55;1.70;;;16.90;56.80;;;;;;5027369;28;20022;-82
2021/10/15 11:58:57;;;;;;;2.92;1.42;;;17.00;56.10;;;;;;5006602;28;20037;-83
2021/10/15 12:01:26;;;;;;;4.22;1.70;;;16.90;56.50;;;;;;5028536;28;20378;-83
2021/10/15 12:04:03;;;;;;;2.25;1.33;;;16.80;55.50;;;;;;5026849;28;20092;-83
2021/10/15 12:06:39;;;;;;;3.38;2.58;;;16.80;55.50;;;;;;5027619;28;20026;-82
2021/10/15 12:09:08;;;;;;;4.50;1.70;;;17.00;56.20;;;;;;5028817;28;20409;-83
2021/10/15 12:11:42;;;;;;;3.58;1.75;;;17.20;56.00;;;;;;5046563;28;20101;-81
2021/10/15 12:14:28;;;;;;;3.03;1.52;;;17.50;56.10;;;;;;5014785;28;20390;-82
2021/10/15 12:17:09;;;;;;;1.63;1.50;;;17.80;55.60;;;;;;5022501;28;20030;-85
2021/10/15 12:19:51;;;;;;;1.55;1.45;;;18.10;54.10;;;;;;5025852;28;20029;-84
2021/10/15 12:22:23;;;;;;;1.95;1.70;;;18.40;53.50;;;;;;5026933;28;20044;-83
2021/10/15 12:24:56;;;;;;;3.38;1.45;;;18.40;52.80;;;;;;5006321;28;20467;-83
2021/10/15 12:27:26;;;;;;;1.50;1.40;;;18.10;53.50;;;;;;5012294;28;20026;-84
2021/10/15 12:29:58;;;;;;;2.42;2.22;;;18.00;54.20;;;;;;5024313;28;20051;-84
2021/10/15 12:32:36;;;;;;;4.50;2.22;;;17.90;53.90;;;;;;5024333;28;20029;-83
2021/10/15 12:35:07;;;;;;;2.15;1.63;;;17.70;54.20;;;;;;5025028;28;20112;-83
2021/10/15 12:37:51;;;;;;;1.75;1.52;;;17.40;55.10;;;;;;5042313;28;20017;-83
2021/10/15 12:40:25;;;;;;;2.38;1.63;;;17.40;56.10;;;;;;5041714;28;20029;-84
2021/10/15 12:43:06;;;;;;;2.33;1.52;;;17.50;56.00;;;;;;5025011;28;20093;-83
2021/10/15 12:45:53;;;;;;;2.28;1.50;;;17.70;55.10;;;;;;5023576;28;20013;-84
2021/10/15 12:48:23;;;;;;;1.48;1.38;;;17.70;54.90;;;;;;5040891;28;20029;-84
2021/10/15 12:51:15;;;;;;;1.60;1.25;;;17.90;54.50;;;;;;5023409;28;20038;-84
2021/10/15 12:53:54;;;;;;;2.90;1.85;;;17.90;54.20;;;;;;5026358;28;20092;-83
2021/10/15 12:56:29;;;;;;;2.03;1.63;;;18.00;53.50;;;;;;5031681;28;20036;-83
2021/10/15 12:59:00;;;;;;;2.50;2.15;;;18.00;53.60;;;;;;5042149;28;20386;-83
2021/10/15 13:01:28;;;;;;;2.30;2.03;;;18.00;53.50;;;;;;4993087;28;20104;-84
2021/10/15 13:03:56;;;;;;;2.30;2.10;;;17.90;53.20;;;;;;5032263;28;20026;-83
2021/10/15 13:06:23;;;;;;;2.67;1.83;;;17.70;53.70;;;;;;5024005;28;20451;-82
2021/10/15 13:08:51;;;;;;;1.90;1.70;;;17.70;54.20;;;;;;5024469;28;20124;-83
2021/10/15 13:11:21;;;;;;;3.00;1.60;;;17.70;54.10;;;;;;5044058;28;20028;-82
2021/10/15 13:13:49;;;;;;;2.35;1.60;;;17.70;53.80;;;;;;5022861;28;20454;-83
2021/10/15 13:16:16;;;;;;;1.30;1.20;;;17.90;53.80;;;;;;5023651;28;20497;-83
2021/10/15 13:18:45;;;;;;;1.73;1.60;;;18.40;52.70;;;;;;5041830;28;20032;-82
2021/10/15 13:21:12;;;;;;;1.65;1.48;;;18.90;52.00;;;;;;5024358;28;20029;-82
2021/10/15 13:23:38;;;;;;;2.05;1.27;;;19.30;50.80;;;;;;5042299;28;20029;-83
2021/10/15 13:26:05;;;;;;;2.55;1.85;;;19.70;50.10;;;;;;5025376;28;20045;-84
2021/10/15 13:28:36;;;;;;;2.17;1.88;;;20.00;48.10;;;;;;5023614;28;20025;-84
2021/10/15 13:31:02;;;;;;;2.00;1.80;;;19.70;48.80;;;;;;5022650;28;20040;-83
2021/10/15 13:33:28;;;;;;;1.65;1.55;;;19.30;49.50;;;;;;5024022;28;20021;-83
2021/10/15 13:36:00;;;;;;;1.65;1.35;;;18.90;50.60;;;;;;5040219;28;20064;-83
2021/10/15 13:38:28;;;;;;;5.30;1.73;;;18.50;51.40;;;;;;5023570;28;20079;-83
2021/10/15 14:01:57;;;;;;;;;;;18.10;52.10;;;;;;5042445;28;20599;-82
2021/10/15 14:07:57;;;;;;;2.13;1.30;;;17.90;52.60;;;;;;5036069;28;20026;-83
2021/10/15 14:10:23;;;;;;;1.48;1.35;;;17.90;52.60;;;;;;5026466;28;20033;-84
2021/10/15 14:12:54;;;;;;;2.47;1.50;;;17.80;52.40;;;;;;5019735;28;20431;-84
2021/10/15 14:15:20;;;;;;;1.60;1.50;;;17.60;52.80;;;;;;5021473;28;20109;-84
2021/10/15 14:17:49;;;;;;;1.90;1.40;;;17.50;52.90;;;;;;5016015;28;20034;-84
2021/10/15 14:20:14;;;;;;;2.25;1.48;;;17.40;53.70;;;;;;5017939;28;20029;-83
2021/10/15 14:22:41;;;;;;;1.60;1.45;;;17.40;54.20;;;;;;5003895;28;20046;-84
2021/10/15 14:25:07;;;;;;;2.65;1.63;;;17.40;53.90;;;;;;5004406;28;20392;-83
2021/10/15 14:27:33;;;;;;;1.10;1.00;;;17.20;54.00;;;;;;5023438;28;20022;-82
2021/10/15 14:29:58;;;;;;;2.15;1.70;;;17.10;54.60;;;;;;5023602;28;20038;-82
2021/10/15 14:32:24;;;;;;;3.42;1.73;;;17.10;54.20;;;;;;5024336;28;20061;-82
2021/10/15 14:34:50;;;;;;;5.57;1.98;;;17.00;54.50;;;;;;5004317;28;20037;-84
2021/10/15 14:37:21;;;;;;;2.45;1.75;;;17.10;55.10;;;;;;5022761;28;20034;-83
2021/10/15 14:39:47;;;;;;;1.87;1.70;;;17.00;55.30;;;;;;5019889;28;20056;-83
2021/10/15 14:42:13;;;;;;;2.10;1.60;;;16.90;55.70;;;;;;5011477;28;20355;-84
2021/10/15 14:44:38;;;;;;;2.67;2.03;;;16.90;56.10;;;;;;5014772;28;20076;-83
2021/10/15 14:47:05;;;;;;;3.30;2.05;;;16.90;56.10;;;;;;5022117;28;20448;-84
2021/10/15 14:49:34;;;;;;;1.85;1.63;;;16.90;55.90;;;;;;5022162;28;20026;-84
2021/10/15 14:52:09;;;;;;;2.20;2.00;;;16.80;56.00;;;;;;5020346;28;20072;-83
2021/10/15 14:54:39;;;;;;;1.67;1.40;;;16.70;56.30;;;;;;5018609;28;20610;-83
2021/10/15 14:57:04;;;;;;;2.20;1.50;;;16.50;56.90;;;;;;5020534;28;20097;-83
2021/10/15 14:59:30;;;;;;;1.40;1.30;;;16.30;57.70;;;;;;5021172;28;20029;-82
2021/10/15 15:01:56;;;;;;;2.88;2.08;;;16.10;58.20;;;;;;5021452;28;20026;-83
2021/10/15 15:04:39;;;;;;;2.80;1.90;;;15.90;58.60;;;;;;5003975;28;20029;-83
2021/10/15 15:07:05;;;;;;;2.20;2.00;;;15.80;59.70;;;;;;5005014;28;20515;-84